Terminal Aerodrome Forecast
Issued by NWS Mt. Holly, NJ

Home | Current Version | Previous Version | Text Only | Print | Product List | Glossary On
Versions: 1 2 3 4 5 6 7 8 9 10 11 12 13
931
FTUS41 KPHI 251727
TAFRDG
TAF
KRDG 251727Z 2518/2618 05010KT P6SM OVC012
     FM251900 06011KT 2SM RA BR BKN008 OVC012
     FM252200 06011KT 1SM +RA BR BKN005 OVC008
     FM260200 05012G18KT P6SM OVC005
     FM260800 01005KT 1SM BR OVC003
     FM261400 35004KT P6SM BKN008 OVC015=

USA.gov is the U.S. government's official web portal to all federal, state and local government web resources and services.